Terminal Aerodrome Forecast
Issued by NWS

Current Version | Previous Version | Graphics & Text | Print | Product List | Glossary On
Versions: 1 2 3 4 5 6 7 8 9 10 11 12 13 14 15
083
FTUS41 KILN 102330
TAFLCK
TAF
KLCK 102330Z 1100/1124 22008KT P6SM OVC040
      TEMPO 1102/1105 BKN025
     FM110600 28005KT P6SM SCT030
     FM110900 VRB03KT P6SM SCT020
     FM111500 19005KT P6SM BKN100
     FM111900 19009G18KT P6SM BKN200=

USA.gov is the U.S. government's official web portal to all federal, state and local government web resources and services.